Time;durP1;ratioP1;P1;durP2;ratioP2;P2;SDS_P1;SDS_P2;PMS_P1;PMS_P2;Temp;Humidity;BMP_temperature;BMP_pressure;BME280_temperature;BME280_humidity;BME280_pressure;Samples;Min_cycle;Max_cycle;Signal;HPM_P1;HPM_P2
2021/07/26 00:00:47;;;;;;;11.80;2.20;;;;;;;29.83;60.65;100682.69;5044050;28;65937;-39
2021/07/26 00:03:17;;;;;;;4.10;2.13;;;;;;;29.91;60.21;100687.00;5052068;28;69663;-39
2021/07/26 00:05:58;;;;;;;4.50;2.10;;;;;;;29.79;61.51;100674.19;5055008;28;66974;-39
2021/07/26 00:08:37;;;;;;;11.00;2.00;;;;;;;30.00;60.91;100701.91;5047687;28;69289;-39
2021/07/26 00:11:09;;;;;;;4.40;2.00;;;;;;;30.01;61.47;100690.06;5052048;28;65551;-39
2021/07/26 00:13:40;;;;;;;8.18;2.38;;;;;;;30.06;62.73;100699.16;5052703;28;70765;-38
2021/07/26 00:16:10;;;;;;;5.20;2.40;;;;;;;30.10;62.31;100696.03;5049871;28;65184;-38
2021/07/26 00:18:40;;;;;;;8.32;2.63;;;;;;;30.13;63.20;100695.59;5053845;28;69585;-38
2021/07/26 00:21:10;;;;;;;8.68;2.90;;;;;;;30.13;63.87;100707.22;5052095;28;66675;-38
2021/07/26 00:23:40;;;;;;;11.00;3.08;;;;;;;30.18;64.39;100712.81;5050748;28;69726;-38
2021/07/26 00:26:11;;;;;;;6.47;4.20;;;;;;;30.18;64.19;100712.81;5052103;28;66407;-38
2021/07/26 00:28:42;;;;;;;3.78;3.47;;;;;;;30.16;63.96;100712.19;5054823;28;69110;-38
2021/07/26 00:31:12;;;;;;;14.98;3.75;;;;;;;30.17;64.53;100724.69;5049574;28;66520;-38
2021/07/26 00:34:08;;;;;;;8.75;3.80;;;;;;;30.13;65.12;100728.03;5050719;28;70056;-38
2021/07/26 00:36:45;;;;;;;13.00;3.45;;;;;;;30.19;65.65;100710.94;5051573;28;65261;-37
2021/07/26 00:39:19;;;;;;;9.43;3.20;;;;;;;30.21;64.20;100720.50;5051681;28;69471;-37
2021/07/26 00:41:51;;;;;;;8.32;3.42;;;;;;;30.23;64.89;100723.84;5048958;28;66779;-37
2021/07/26 00:44:23;;;;;;;7.93;2.97;;;;;;;30.24;64.49;100728.19;5051198;28;69943;-38
2021/07/26 00:46:54;;;;;;;4.07;3.15;;;;;;;30.24;64.47;100721.97;5052678;28;66315;-37
2021/07/26 00:49:26;;;;;;;8.40;3.38;;;;;;;30.23;64.33;100723.84;5048975;28;69693;-39
2021/07/26 00:51:58;;;;;;;3.95;3.55;;;;;;;30.21;63.69;100735.91;5052751;28;65337;-38
2021/07/26 00:54:35;;;;;;;2.97;2.78;;;;;;;30.10;63.24;100713.09;5056051;28;69613;-39
2021/07/26 00:57:08;;;;;;;4.97;2.88;;;;;;;30.06;62.93;100698.31;5051083;28;65848;-39
2021/07/26 00:59:40;;;;;;;4.80;2.40;;;;;;;30.09;62.74;100708.72;5050128;28;71025;-38
2021/07/26 01:02:12;;;;;;;3.08;2.75;;;;;;;30.27;62.84;100735.88;5052877;28;66104;-38
2021/07/26 01:04:44;;;;;;;4.38;2.88;;;;;;;30.30;62.26;100733.78;5052966;28;69515;-38
2021/07/26 01:07:15;;;;;;;3.10;2.47;;;;;;;30.33;62.24;100738.75;5055328;28;66697;-38
2021/07/26 01:09:46;;;;;;;4.20;2.50;;;;;;;30.31;61.37;100735.44;5051651;28;69733;-38
2021/07/26 01:12:16;;;;;;;2.55;2.35;;;;;;;30.36;62.12;100746.41;5051573;28;65611;-38
2021/07/26 01:14:47;;;;;;;3.28;2.55;;;;;;;30.40;61.92;100751.19;5050510;28;69988;-38
2021/07/26 01:17:46;;;;;;;6.32;2.35;;;;;;;30.41;62.25;100749.31;5049450;28;65739;-38
2021/07/26 01:20:19;;;;;;;6.82;2.85;;;;;;;30.45;62.71;100753.22;5058689;28;69041;-37
2021/07/26 01:22:54;;;;;;;4.18;3.65;;;;;;;30.48;61.53;100763.63;5053551;28;65889;-37
2021/07/26 01:25:30;;;;;;;3.95;2.90;;;;;;;30.53;61.55;100762.94;5055981;28;70279;-37
2021/07/26 01:28:05;;;;;;;2.50;2.15;;;;;;;30.52;61.75;100748.59;5053060;28;66572;-37
2021/07/26 01:30:38;;;;;;;5.10;3.55;;;;;;;30.58;60.97;100747.69;5055272;28;69054;-38
2021/07/26 01:33:11;;;;;;;4.83;3.13;;;;;;;30.55;61.31;100737.31;5052318;28;65978;-38
2021/07/26 01:35:43;;;;;;;5.40;2.60;;;;;;;30.69;61.44;100748.84;5053614;28;69350;-38
2021/07/26 01:38:17;;;;;;;5.60;2.30;;;;;;;30.69;61.28;100738.03;5057341;28;66080;-38
2021/07/26 01:40:55;;;;;;;2.42;2.17;;;;;;;30.72;61.47;100749.22;5052896;28;68737;-38
2021/07/26 01:43:32;;;;;;;2.47;1.85;;;;;;;30.74;60.91;100743.59;5053348;28;65252;-38
2021/07/26 01:46:45;;;;;;;3.28;2.17;;;;;;;30.69;61.65;100755.09;5047842;28;70104;-40
2021/07/26 01:49:43;;;;;;;4.53;2.28;;;;;;;30.79;61.01;100740.25;5053985;28;65426;-38
2021/07/26 01:52:16;;;;;;;4.25;2.40;;;;;;;30.84;60.88;100740.41;5033680;28;70062;-38
2021/07/26 01:54:49;;;;;;;6.38;2.47;;;;;;;30.81;60.97;100727.31;5042390;28;66729;-38
2021/07/26 01:57:23;;;;;;;7.15;2.25;;;;;;;30.88;60.75;100731.63;5039503;28;69750;-37
2021/07/26 01:59:56;;;;;;;3.00;2.30;;;;;;;30.70;60.78;100699.91;5040535;28;65609;-38
2021/07/26 02:02:31;;;;;;;4.10;2.45;;;;;;;30.94;60.57;100729.91;5039244;28;70425;-39
2021/07/26 02:05:09;;;;;;;5.90;3.13;;;;;;;31.02;60.55;100737.72;5056498;28;65349;-38
2021/07/26 02:07:44;;;;;;;4.38;2.38;;;;;;;31.02;60.66;100742.31;5053882;28;70357;-39
2021/07/26 02:10:17;;;;;;;5.25;2.60;;;;;;;31.03;60.45;100739.38;5055025;28;64948;-39
2021/07/26 02:12:50;;;;;;;4.72;2.95;;;;;;;30.96;61.19;100725.09;5051771;28;69246;-37
2021/07/26 02:15:34;;;;;;;7.90;2.70;;;;;;;31.09;60.96;100738.50;5040740;28;66082;-38
2021/07/26 02:18:08;;;;;;;3.15;2.60;;;;;;;31.10;60.20;100733.91;5054403;28;70123;-40
2021/07/26 02:20:44;;;;;;;4.07;2.75;;;;;;;31.13;60.65;100728.84;5052645;28;66354;-38
2021/07/26 02:23:26;;;;;;;8.95;2.60;;;;;;;31.00;60.47;100712.72;5067642;28;70395;-39
2021/07/26 02:26:01;;;;;;;3.22;2.28;;;;;;;31.15;60.52;100739.47;5050099;28;66534;-39
2021/07/26 02:28:38;;;;;;;9.38;2.92;;;;;;;31.19;60.89;100745.25;5056808;28;70007;-38
2021/07/26 02:31:09;;;;;;;5.25;2.45;;;;;;;31.21;60.37;100743.16;5051217;28;66191;-38
2021/07/26 02:33:45;;;;;;;6.40;3.00;;;;;;;31.16;61.00;100744.66;5052006;28;70230;-37
2021/07/26 02:36:21;;;;;;;5.18;2.20;;;;;;;31.25;60.45;100747.06;5055853;28;66320;-37
2021/07/26 02:39:00;;;;;;;3.97;2.35;;;;;;;31.29;60.38;100738.25;5051375;28;70274;-37
2021/07/26 02:41:37;;;;;;;3.63;1.80;;;;;;;31.33;60.30;100735.91;5053973;28;66548;-37
2021/07/26 02:44:13;;;;;;;3.88;2.35;;;;;;;31.37;60.29;100729.00;5052667;28;70181;-36
2021/07/26 02:46:49;;;;;;;4.20;2.30;;;;;;;31.31;60.79;100714.44;5039455;28;66214;-37
2021/07/26 02:49:22;;;;;;;8.73;2.60;;;;;;;31.33;60.46;100711.53;5034511;28;70142;-38
2021/07/26 02:52:00;;;;;;;7.10;2.47;;;;;;;31.48;60.71;100735.56;5055568;28;65752;-37
2021/07/26 02:54:35;;;;;;;3.88;2.22;;;;;;;31.50;60.62;100733.44;5041366;28;70417;-36
2021/07/26 02:57:10;;;;;;;4.40;2.45;;;;;;;31.08;60.23;100660.97;5054827;28;66119;-36
2021/07/26 02:59:47;;;;;;;4.93;2.58;;;;;;;31.48;60.60;100722.84;5053721;28;70123;-37
2021/07/26 03:02:21;;;;;;;10.97;2.90;;;;;;;31.56;60.46;100733.34;5055724;28;66544;-37
2021/07/26 03:04:58;;;;;;;8.82;2.55;;;;;;;31.57;60.44;100729.59;5052629;28;70310;-37
2021/07/26 03:07:34;;;;;;;7.18;2.30;;;;;;;31.59;60.24;100727.50;5039850;28;66058;-37
2021/07/26 03:10:09;;;;;;;4.35;2.50;;;;;;;31.61;60.62;100725.38;5053754;28;70328;-37
2021/07/26 03:12:47;;;;;;;5.43;2.20;;;;;;;31.64;60.61;100710.53;5048476;28;66715;-37
2021/07/26 03:15:28;;;;;;;6.63;2.90;;;;;;;31.65;60.57;100724.91;5053120;28;70580;-37
2021/07/26 03:18:09;;;;;;;7.55;2.60;;;;;;;31.68;60.40;100732.56;5049726;28;66053;-37
2021/07/26 03:20:53;;;;;;;6.53;2.20;;;;;;;31.71;60.41;100715.88;5054479;28;70092;-38
2021/07/26 03:23:33;;;;;;;9.48;2.28;;;;;;;31.72;60.47;100709.38;5050762;28;65528;-37
2021/07/26 03:26:24;;;;;;;6.10;2.22;;;;;;;31.74;60.16;100712.69;5049656;28;70339;-37
2021/07/26 03:29:02;;;;;;;3.83;1.90;;;;;;;31.77;60.48;100710.34;5051880;28;66566;-37
2021/07/26 03:31:41;;;;;;;4.65;2.22;;;;;;;31.79;60.03;100705.53;5051712;28;70346;-38
2021/07/26 03:34:13;;;;;;;4.80;2.30;;;;;;;31.82;60.01;100715.09;5034402;28;66101;-38
2021/07/26 03:37:05;;;;;;;4.32;2.20;;;;;;;31.81;59.61;100702.56;5040850;28;69508;-37
2021/07/26 03:39:40;;;;;;;3.92;2.20;;;;;;;31.90;59.64;100716.63;5050390;28;65562;-38
2021/07/26 03:42:17;;;;;;;4.07;2.33;;;;;;;31.92;59.56;100719.97;5048264;28;70170;-38
2021/07/26 03:44:50;;;;;;;6.82;2.47;;;;;;;31.92;59.84;100699.09;5049097;28;65628;-37
2021/07/26 03:47:24;;;;;;;2.70;2.20;;;;;;;31.94;59.88;100712.44;5052833;28;70044;-37
2021/07/26 03:50:20;;;;;;;3.85;2.35;;;;;;;31.91;59.73;100711.00;5050268;28;66230;-38
2021/07/26 03:52:56;;;;;;;3.28;1.65;;;;;;;31.99;59.80;100701.72;5051369;28;70025;-38
2021/07/26 03:55:33;;;;;;;4.97;2.30;;;;;;;32.01;59.52;100692.28;5035123;28;65382;-38
2021/07/26 03:58:09;;;;;;;4.70;2.10;;;;;;;31.97;59.48;100668.56;5060337;28;69079;-38
2021/07/26 04:00:45;;;;;;;6.43;1.90;;;;;;;32.05;59.35;100685.31;5050607;28;65828;-37
2021/07/26 04:03:23;;;;;;;4.03;2.03;;;;;;;32.09;59.62;100682.16;5034010;28;70211;-38
2021/07/26 04:06:09;;;;;;;5.40;2.30;;;;;;;32.11;59.68;100680.03;5053114;28;65380;-38
2021/07/26 04:08:49;;;;;;;4.88;2.38;;;;;;;32.14;59.71;100674.97;5053900;28;69877;-38
2021/07/26 04:11:35;;;;;;;3.67;2.40;;;;;;;32.17;59.52;100676.38;5046981;28;65536;-38
2021/07/26 04:14:11;;;;;;;3.53;2.17;;;;;;;32.18;59.29;100667.16;5033565;28;70332;-38
2021/07/26 04:16:43;;;;;;;5.50;2.25;;;;;;;32.21;58.93;100672.16;5042102;28;65445;-37
2021/07/26 04:19:26;;;;;;;7.45;2.80;;;;;;;32.24;59.27;100652.69;5050795;28;69235;-38
2021/07/26 04:22:00;;;;;;;4.63;2.70;;;;;;;32.15;58.78;100648.63;5050595;28;66370;-37
2021/07/26 04:24:47;;;;;;;12.30;2.25;;;;;;;32.23;58.30;100660.00;5046661;28;70374;-37
2021/07/26 04:27:44;;;;;;;13.68;2.83;;;;;;;32.12;57.22;100659.97;5036250;28;66903;-36
2021/07/26 04:30:37;;;;;;;5.32;2.30;;;;;;;31.99;55.63;100656.41;5048346;28;70513;-38
2021/07/26 04:33:19;;;;;;;10.07;2.67;;;;;;;31.82;55.12;100639.16;5049216;28;66928;-38
2021/07/26 04:35:54;;;;;;;13.63;2.70;;;;;;;31.79;54.11;100656.72;5049841;28;70307;-37
2021/07/26 04:38:25;;;;;;;12.35;2.63;;;;;;;31.72;53.49;100655.16;5046812;28;66474;-37
2021/07/26 04:41:02;;;;;;;9.00;1.95;;;;;;;31.56;53.41;100635.75;5043966;28;69889;-37
2021/07/26 04:43:38;;;;;;;6.60;2.28;;;;;;;31.57;52.60;100661.81;5051620;28;66473;-39
2021/07/26 04:46:11;;;;;;;6.38;2.05;;;;;;;31.51;52.01;100642.91;5046702;28;69972;-37
2021/07/26 04:48:47;;;;;;;8.00;2.70;;;;;;;31.34;50.23;100631.88;5048788;28;66414;-37
2021/07/26 04:51:19;;;;;;;9.10;2.00;;;;;;;31.38;51.51;100638.53;5033789;28;69075;-37
2021/07/26 04:53:54;;;;;;;7.95;2.30;;;;;;;31.32;50.42;100634.81;5050422;28;65469;-38
2021/07/26 04:56:33;;;;;;;3.63;1.70;;;;;;;31.26;50.21;100629.47;5050436;28;70121;-37
2021/07/26 04:59:10;;;;;;;8.75;2.28;;;;;;;30.94;50.88;100578.22;5038022;28;67007;-38
2021/07/26 05:01:40;;;;;;;4.30;2.35;;;;;;;31.15;49.44;100628.38;5050420;28;69151;-37
2021/07/26 05:04:20;;;;;;;4.68;2.55;;;;;;;31.07;48.93;100590.78;5053381;28;66560;-37
2021/07/26 05:07:12;;;;;;;2.63;1.77;;;;;;;31.03;49.45;100595.78;5047667;28;70036;-38
2021/07/26 05:09:52;;;;;;;7.05;2.10;;;;;;;31.07;48.30;100588.88;5031505;28;66465;-36
2021/07/26 05:12:30;;;;;;;5.03;2.03;;;;;;;30.99;48.35;100574.84;5051801;28;70785;-37
2021/07/26 05:15:08;;;;;;;4.45;2.05;;;;;;;31.01;48.22;100591.66;5052632;28;65597;-41
2021/07/26 05:17:45;;;;;;;6.07;2.00;;;;;;;30.93;48.33;100587.41;5052873;28;70048;-38
2021/07/26 05:20:24;;;;;;;4.07;1.80;;;;;;;30.91;47.11;100590.31;5052663;28;67000;-37
2021/07/26 05:23:09;;;;;;;3.03;1.95;;;;;;;30.84;46.39;100583.34;5045285;28;69784;-37
2021/07/26 05:25:47;;;;;;;6.35;2.03;;;;;;;30.83;47.79;100570.84;5058024;28;65166;-37
2021/07/26 05:28:17;;;;;;;6.45;1.88;;;;;;;30.75;46.55;100568.44;5038995;28;69469;-37
2021/07/26 05:30:52;;;;;;;4.85;1.73;;;;;;;30.79;47.77;100565.03;5050036;28;66016;-37
2021/07/26 05:33:25;;;;;;;5.60;1.67;;;;;;;30.53;46.30;100522.84;5048932;28;70383;-37
2021/07/26 05:35:58;;;;;;;2.38;1.70;;;;;;;30.79;46.90;100558.81;5047778;28;66322;-38
2021/07/26 05:38:38;;;;;;;3.15;1.92;;;;;;;30.76;46.37;100543.84;5034527;28;69247;-37
2021/07/26 05:41:12;;;;;;;3.13;1.58;;;;;;;30.76;46.38;100540.28;5049388;28;65486;-37
2021/07/26 05:43:49;;;;;;;3.38;1.58;;;;;;;30.76;45.35;100543.00;5048596;28;69258;-38
2021/07/26 05:46:21;;;;;;;5.53;2.03;;;;;;;30.72;45.93;100558.88;5040760;28;65895;-38
2021/07/26 05:49:15;;;;;;;2.85;1.70;;;;;;;30.26;46.14;100476.38;5038183;28;69556;-37
2021/07/26 05:51:47;;;;;;;6.82;2.17;;;;;;;30.67;45.69;100551.44;5001270;28;66032;-37
2021/07/26 05:54:27;;;;;;;5.47;1.50;;;;;;;30.69;45.63;100549.31;5050935;28;69974;-37
2021/07/26 05:57:22;;;;;;;2.55;1.70;;;;;;;30.33;44.92;100496.03;5056614;28;65542;-37
2021/07/26 05:59:59;;;;;;;4.35;1.88;;;;;;;30.66;45.59;100527.28;5029222;28;70343;-38
2021/07/26 06:02:36;;;;;;;4.15;1.95;;;;;;;30.70;45.27;100528.47;5052751;28;66264;-37
2021/07/26 06:05:11;;;;;;;6.15;2.03;;;;;;;30.68;45.09;100526.03;5052758;28;70053;-39
2021/07/26 06:07:47;;;;;;;7.05;1.80;;;;;;;30.72;45.03;100520.97;5048428;28;66563;-38
2021/07/26 06:10:23;;;;;;;3.60;1.63;;;;;;;30.70;44.68;100510.38;5022314;28;69589;-38
2021/07/26 06:12:59;;;;;;;2.30;1.75;;;;;;;30.72;44.72;100513.66;5053211;28;66152;-38
2021/07/26 06:15:55;;;;;;;2.50;1.90;;;;;;;30.72;45.06;100510.97;5048467;28;69566;-37
2021/07/26 06:18:27;;;;;;;3.28;1.77;;;;;;;30.77;44.59;100517.59;5054221;28;66518;-38
2021/07/26 06:21:08;;;;;;;3.15;2.00;;;;;;;30.80;44.00;100512.56;5047292;28;70523;-39
2021/07/26 06:23:43;;;;;;;3.30;1.50;;;;;;;30.82;44.26;100498.81;5047612;28;65552;-38
2021/07/26 06:26:16;;;;;;;2.47;1.45;;;;;;;30.55;44.57;100447.69;5048986;28;69558;-38
2021/07/26 06:28:55;;;;;;;3.03;1.80;;;;;;;30.80;44.31;100490.06;5053156;28;65963;-38
2021/07/26 06:31:34;;;;;;;3.00;1.83;;;;;;;30.87;44.40;100490.78;5039032;28;70026;-38
2021/07/26 06:34:09;;;;;;;4.65;1.98;;;;;;;30.86;44.00;100489.97;5037766;28;65522;-38
2021/07/26 06:36:46;;;;;;;2.50;1.90;;;;;;;30.84;42.80;100486.69;5049781;28;69246;-38
2021/07/26 06:39:25;;;;;;;3.42;1.80;;;;;;;30.56;44.03;100430.38;5048450;28;66578;-38
2021/07/26 06:42:02;;;;;;;2.38;1.90;;;;;;;30.87;43.62;100474.53;5048660;28;70451;-39
2021/07/26 06:44:40;;;;;;;2.78;1.58;;;;;;;30.86;43.51;100468.31;5050646;28;65725;-38
2021/07/26 06:47:22;;;;;;;5.00;1.85;;;;;;;30.96;43.16;100467.78;5052259;28;70954;-39
2021/07/26 06:50:01;;;;;;;4.55;1.98;;;;;;;30.95;43.73;100466.09;5046430;28;66488;-40
2021/07/26 06:52:36;;;;;;;2.38;1.77;;;;;;;30.95;43.79;100455.25;5053247;28;69416;-37
2021/07/26 06:55:09;;;;;;;3.05;1.35;;;;;;;30.97;43.72;100442.31;5051916;27;66577;-37
2021/07/26 06:57:40;;;;;;;5.15;1.95;;;;;;;30.98;42.58;100443.16;5048542;28;69183;-38
2021/07/26 07:00:16;;;;;;;2.78;1.58;;;;;;;30.82;42.68;100422.97;5051932;28;66262;-38
2021/07/26 07:02:57;;;;;;;2.40;1.67;;;;;;;31.03;42.85;100446.81;5048069;28;70297;-38
2021/07/26 07:05:30;;;;;;;3.90;1.80;;;;;;;31.02;42.75;100434.34;5049868;28;65530;-37
2021/07/26 07:08:04;;;;;;;2.40;2.13;;;;;;;31.05;42.44;100439.28;5049841;28;70381;-38
2021/07/26 07:10:36;;;;;;;3.63;1.65;;;;;;;31.04;42.28;100437.66;5050190;28;66121;-38
2021/07/26 07:13:12;;;;;;;2.85;1.65;;;;;;;30.75;42.13;100389.72;5046343;28;69390;-38
2021/07/26 07:15:46;;;;;;;5.65;1.88;;;;;;;31.07;42.35;100431.75;5044471;28;65336;-38
2021/07/26 07:18:18;;;;;;;2.72;1.75;;;;;;;31.08;41.41;100430.69;5053215;28;70992;-37
2021/07/26 07:20:53;;;;;;;2.85;1.38;;;;;;;31.08;42.09;100419.84;5035716;28;64574;-37
2021/07/26 07:23:28;;;;;;;2.97;1.63;;;;;;;31.09;41.79;100413.41;5037646;28;70537;-38
2021/07/26 07:26:04;;;;;;;5.18;1.77;;;;;;;31.10;41.86;100409.63;5052166;28;65588;-37
2021/07/26 07:28:36;;;;;;;2.20;1.80;;;;;;;31.09;41.27;100421.53;5055704;28;69736;-38
2021/07/26 07:31:17;;;;;;;2.42;1.73;;;;;;;31.10;41.82;100406.91;5050431;28;66340;-38
2021/07/26 07:33:51;;;;;;;;;;;;;;;30.84;41.43;100416.28;5036816;28;70171;-39
2021/07/26 07:36:31;;;;;;;2.95;1.70;;;;;;;31.09;42.11;100413.41;5054964;28;65097;-37
2021/07/26 07:39:05;;;;;;;5.82;2.03;;;;;;;31.12;42.34;100402.09;5046872;28;70231;-38
2021/07/26 07:41:36;;;;;;;2.38;1.88;;;;;;;31.15;42.66;100407.03;5037048;28;65578;-38
2021/07/26 07:44:14;;;;;;;2.80;1.95;;;;;;;31.19;42.30;100395.72;5050587;28;70104;-37
2021/07/26 07:46:50;;;;;;;2.42;1.67;;;;;;;31.15;42.30;100398.91;5048674;28;65604;-38
2021/07/26 07:49:28;;;;;;;3.80;2.65;;;;;;;31.09;41.80;100375.47;5045140;28;70307;-37
2021/07/26 07:52:19;;;;;;;3.40;1.95;;;;;;;31.16;42.15;100387.00;5053542;28;66508;-38
2021/07/26 07:54:54;;;;;;;3.63;2.40;;;;;;;31.16;42.11;100387.00;5055985;28;70023;-38
2021/07/26 07:57:28;;;;;;;3.35;2.25;;;;;;;31.16;41.50;100394.31;5049682;28;66390;-37
2021/07/26 08:00:05;;;;;;;3.30;2.40;;;;;;;31.14;41.95;100383.69;5050420;28;69987;-38
2021/07/26 08:02:41;;;;;;;4.40;2.72;;;;;;;31.13;41.50;100370.41;5052528;28;66297;-38
2021/07/26 08:05:42;;;;;;;5.28;2.30;;;;;;;31.12;41.79;100380.41;5051448;28;69977;-38
2021/07/26 08:08:20;;;;;;;2.20;1.98;;;;;;;31.13;41.04;100373.09;5054451;28;66586;-37
2021/07/26 08:10:58;;;;;;;4.30;2.70;;;;;;;31.10;41.43;100370.88;5053465;28;70263;-38
2021/07/26 08:13:47;;;;;;;;;;;;;;;30.80;40.65;100376.34;5053235;28;66493;-38
2021/07/26 08:16:24;;;;;;;2.97;2.57;;;;;;;31.04;41.40;100375.34;5048491;28;70135;-38
2021/07/26 08:19:03;;;;;;;2.83;2.25;;;;;;;31.05;40.89;100374.28;5053160;28;65882;-38
2021/07/26 08:21:38;;;;;;;2.53;2.20;;;;;;;31.04;40.64;100379.94;5050658;28;69655;-39
2021/07/26 08:24:12;;;;;;;2.72;2.53;;;;;;;31.07;40.95;100382.19;5052352;28;66337;-38
2021/07/26 08:26:46;;;;;;;3.22;2.60;;;;;;;31.07;41.25;100383.00;5049120;28;69795;-38
2021/07/26 08:29:17;;;;;;;6.07;1.98;;;;;;;31.16;41.49;100375.34;5021852;28;65857;-38
2021/07/26 08:31:52;;;;;;;7.88;2.42;;;;;;;31.29;43.04;100374.31;5036874;28;70583;-38
2021/07/26 08:34:36;;;;;;;4.57;2.72;;;;;;;31.44;43.47;100377.38;5061055;27;66171;-39
2021/07/26 08:37:11;;;;;;;5.38;3.00;;;;;;;31.63;43.29;100374.56;5052652;28;70183;-37
2021/07/26 08:39:51;;;;;;;3.47;2.70;;;;;;;31.71;43.99;100356.03;5051741;28;65123;-37
2021/07/26 08:42:27;;;;;;;4.68;2.95;;;;;;;31.82;44.43;100357.06;5059583;28;70263;-38
2021/07/26 08:44:58;;;;;;;;;;;;;;;31.79;45.95;100363.81;5058544;28;65917;-38
2021/07/26 08:47:39;;;;;;;5.78;2.85;;;;;;;32.18;45.43;100382.22;5059864;28;69899;-38
2021/07/26 08:50:19;;;;;;;3.38;3.08;;;;;;;32.10;45.32;100331.91;5057397;28;65975;-39
2021/07/26 08:53:13;;;;;;;4.28;3.40;;;;;;;32.38;46.10;100369.06;5055857;28;71669;-39
2021/07/26 08:55:47;;;;;;;6.43;3.38;;;;;;;32.47;45.98;100354.06;5044248;28;66596;-38
2021/07/26 08:58:21;;;;;;;5.60;3.63;;;;;;;32.59;46.46;100355.88;5053312;28;69217;-38
2021/07/26 09:00:57;;;;;;;7.07;3.67;;;;;;;32.67;46.45;100366.34;5054932;28;66767;-38
2021/07/26 09:03:37;;;;;;;;;;;;;;;32.46;47.75;100362.47;5055835;28;68512;-38
2021/07/26 09:06:17;;;;;;;4.70;3.65;;;;;;;32.76;46.62;100362.16;5055734;28;66268;-38
2021/07/26 09:08:58;;;;;;;;;;;;;;;32.49;47.57;100351.13;5054599;28;70030;-38
2021/07/26 09:11:45;;;;;;;8.77;3.90;;;;;;;32.85;47.75;100366.13;5040993;28;65841;-39
2021/07/26 09:14:42;;;;;;;6.53;3.60;;;;;;;32.85;51.14;100357.97;5051631;28;70481;-38
2021/07/26 09:17:18;;;;;;;6.55;4.28;;;;;;;32.99;52.07;100365.78;5063191;28;66466;-36
2021/07/26 09:19:59;;;;;;;14.43;4.97;;;;;;;32.71;51.64;100302.34;5053564;28;69967;-37
2021/07/26 09:22:38;;;;;;;10.35;4.97;;;;;;;32.37;52.48;100239.81;5055885;28;65312;-37
2021/07/26 09:25:30;;;;;;;7.80;4.60;;;;;;;32.98;53.83;100331.53;5040960;28;70340;-36
2021/07/26 09:28:11;;;;;;;14.30;4.75;;;;;;;33.21;53.17;100347.72;5057405;28;66171;-38
2021/07/26 09:30:55;;;;;;;9.30;4.70;;;;;;;33.25;55.25;100353.47;5052477;28;69947;-36
2021/07/26 09:33:30;;;;;;;7.03;4.53;;;;;;;32.89;54.29;100279.53;5047514;28;66142;-37
2021/07/26 09:36:10;;;;;;;10.93;5.40;;;;;;;33.37;54.67;100346.84;5053240;28;70289;-37
2021/07/26 09:38:44;;;;;;;11.32;5.07;;;;;;;33.33;55.05;100348.44;5048514;28;66459;-38
2021/07/26 09:41:16;;;;;;;8.15;5.25;;;;;;;33.36;55.09;100356.06;5044395;28;69967;-39
2021/07/26 09:44:04;;;;;;;11.80;5.43;;;;;;;33.34;56.90;100363.66;5045027;28;66718;-37
2021/07/26 09:46:44;;;;;;;12.65;4.90;;;;;;;33.36;55.83;100361.50;5054407;28;69636;-37
2021/07/26 09:49:17;;;;;;;6.82;4.88;;;;;;;33.42;55.75;100354.25;5050583;28;65680;-40
2021/07/26 09:52:09;;;;;;;7.47;4.75;;;;;;;33.18;56.70;100320.19;5032621;28;70044;-37
2021/07/26 09:54:55;;;;;;;9.95;4.78;;;;;;;33.48;56.02;100360.59;5058328;28;65394;-37
2021/07/26 09:57:33;;;;;;;10.48;5.03;;;;;;;33.34;55.69;100339.19;5054380;28;70195;-38
2021/07/26 10:00:06;;;;;;;10.25;5.57;;;;;;;33.51;56.01;100362.81;5058192;28;66216;-37
2021/07/26 10:02:39;;;;;;;11.68;5.47;;;;;;;33.53;56.04;100360.69;5054699;28;67399;-37
2021/07/26 10:05:14;;;;;;;8.05;5.20;;;;;;;33.54;56.33;100352.31;5051552;28;65458;-37
2021/07/26 10:07:52;;;;;;;8.90;4.68;;;;;;;33.57;56.96;100353.66;5040560;28;70078;-37
2021/07/26 10:10:24;;;;;;;7.05;5.20;;;;;;;33.54;56.68;100348.72;5051611;28;66387;-37
2021/07/26 10:12:56;;;;;;;11.77;5.63;;;;;;;33.54;57.31;100351.44;5055259;28;69782;-37
2021/07/26 10:15:34;;;;;;;6.03;5.43;;;;;;;33.49;58.76;100354.06;5035687;28;66406;-38
2021/07/26 10:18:17;;;;;;;13.00;5.07;;;;;;;33.47;59.25;100361.66;5054835;28;70231;-37
2021/07/26 10:21:08;;;;;;;7.28;5.47;;;;;;;33.43;59.03;100371.38;5038226;28;65766;-36
2021/07/26 10:23:55;;;;;;;12.13;4.82;;;;;;;33.43;58.98;100365.94;5033248;28;70478;-38
2021/07/26 10:26:46;;;;;;;12.75;5.75;;;;;;;33.29;59.37;100377.19;5043432;28;66027;-35
2021/07/26 10:29:20;;;;;;;8.98;5.30;;;;;;;33.31;59.20;100391.34;5055365;28;69753;-37
2021/07/26 10:31:53;;;;;;;8.90;5.07;;;;;;;33.17;59.97;100368.28;5040441;28;66056;-36
2021/07/26 10:34:34;;;;;;;7.63;5.20;;;;;;;33.25;59.89;100381.47;5051551;28;70248;-36
2021/07/26 10:37:08;;;;;;;8.27;5.13;;;;;;;33.24;59.90;100390.69;5034822;28;66481;-37
2021/07/26 10:40:02;;;;;;;;;;;;;;;32.92;61.28;100388.50;5024937;28;69183;-38
2021/07/26 10:42:36;;;;;;;5.93;5.20;;;;;;;33.20;59.68;100402.31;5056061;28;66304;-39
2021/07/26 10:45:31;;;;;;;8.50;6.15;;;;;;;33.19;59.42;100398.78;5039672;28;70248;-37
2021/07/26 10:48:34;;;;;;;7.28;5.45;;;;;;;33.07;60.27;100395.28;5035299;28;65628;-37
2021/07/26 10:51:36;;;;;;;7.45;5.00;;;;;;;33.05;60.96;100392.03;5050305;28;68380;-37
2021/07/26 10:54:09;;;;;;;9.93;5.40;;;;;;;33.10;60.43;100392.13;5041331;28;65235;-37
2021/07/26 10:57:36;;;;;;;5.63;5.13;;;;;;;32.96;61.35;100393.44;5036137;28;70183;-36
2021/07/26 11:00:15;;;;;;;7.18;5.18;;;;;;;33.07;61.12;100400.72;5049430;28;65776;-36
2021/07/26 11:02:50;;;;;;;5.30;4.80;;;;;;;33.06;60.87;100399.91;5052356;28;70303;-36
2021/07/26 11:05:32;;;;;;;8.15;6.30;;;;;;;33.06;61.55;100409.97;5055166;28;65931;-36
2021/07/26 11:08:18;;;;;;;10.57;6.82;;;;;;;33.02;61.73;100408.81;5052237;28;69622;-38
2021/07/26 11:10:59;;;;;;;12.27;6.85;;;;;;;33.00;61.08;100400.09;5051300;28;65019;-37
2021/07/26 11:13:47;;;;;;;10.60;7.13;;;;;;;32.91;62.23;100411.31;5054639;28;69714;-36
2021/07/26 11:17:11;;;;;;;9.52;6.85;;;;;;;32.90;62.20;100409.69;5053775;28;65864;-37
2021/07/26 11:19:46;;;;;;;7.40;6.63;;;;;;;32.96;61.39;100412.47;5055681;28;69307;-37
2021/07/26 11:22:25;;;;;;;8.70;6.07;;;;;;;32.98;60.81;100416.59;5055468;28;65773;-36
2021/07/26 11:25:08;;;;;;;9.85;6.30;;;;;;;32.97;61.36;100431.25;5050124;28;70427;-37
2021/07/26 11:27:47;;;;;;;12.38;7.35;;;;;;;32.93;61.22;100430.94;5046998;28;66430;-37
2021/07/26 11:30:24;;;;;;;8.13;6.43;;;;;;;32.98;61.76;100440.22;5047073;28;69261;-36
2021/07/26 11:32:59;;;;;;;7.75;6.85;;;;;;;32.98;61.41;100440.22;5035952;28;66088;-37
2021/07/26 11:35:34;;;;;;;7.35;6.18;;;;;;;32.93;62.45;100435.50;5051245;28;70289;-37
2021/07/26 11:38:05;;;;;;;9.70;5.88;;;;;;;32.90;61.86;100445.00;5062880;28;66478;-36
2021/07/26 11:40:36;;;;;;;12.30;6.68;;;;;;;32.96;61.83;100448.63;5047035;28;69801;-37
2021/07/26 11:43:09;;;;;;;13.52;6.28;;;;;;;32.99;61.46;100453.59;5046019;28;65366;-36
2021/07/26 11:45:40;;;;;;;9.63;6.45;;;;;;;32.94;61.58;100451.59;5050651;28;69786;-36
2021/07/26 11:48:14;;;;;;;9.35;6.47;;;;;;;32.58;61.54;100392.25;5052854;28;65925;-36
2021/07/26 11:50:49;;;;;;;9.25;7.32;;;;;;;32.94;62.56;100446.16;5045915;28;69566;-35
2021/07/26 11:53:34;;;;;;;13.18;7.50;;;;;;;33.00;61.71;100462.56;5049012;28;66159;-35
2021/07/26 11:56:18;;;;;;;10.52;6.90;;;;;;;32.97;62.48;100460.31;5050824;28;69948;-36
2021/07/26 11:58:49;;;;;;;13.90;7.57;;;;;;;32.97;62.45;100465.75;5048823;28;66255;-36
2021/07/26 12:01:24;;;;;;;13.30;7.75;;;;;;;33.00;62.46;100465.28;5050349;28;69705;-35
2021/07/26 12:04:04;;;;;;;11.35;7.13;;;;;;;33.01;62.25;100461.50;5016575;28;65252;-34
2021/07/26 12:06:51;;;;;;;11.10;7.00;;;;;;;32.99;62.84;100463.59;5050548;28;70018;-35
2021/07/26 12:09:35;;;;;;;;;;;;;;;32.71;63.64;100462.56;5048071;28;65542;-36
2021/07/26 12:12:14;;;;;;;7.60;6.90;;;;;;;32.99;62.32;100471.75;5048889;28;70149;-35
2021/07/26 12:14:54;;;;;;;9.63;6.55;;;;;;;32.96;62.58;100474.97;5048034;28;43179;-36
2021/07/26 12:17:30;;;;;;;11.23;6.55;;;;;;;32.96;62.57;100480.38;5036847;28;69399;-35